createdAt,value
2019-01-25T00:00:54.272Z,101573.33
2019-01-25T00:03:24.500Z,101573.88
2019-01-25T00:05:51.851Z,101574.15
2019-01-25T00:08:19.203Z,101568.12
2019-01-25T00:10:46.620Z,101568.94
2019-01-25T00:13:14.034Z,101565.06
2019-01-25T00:15:41.576Z,101568.56
2019-01-25T00:18:08.980Z,101570.33
2019-01-25T00:20:36.697Z,101569.24
2019-01-25T00:23:03.721Z,101567.34
2019-01-25T00:25:30.829Z,101568.00
2019-01-25T00:27:58.246Z,101566.52
2019-01-25T00:30:25.602Z,101569.92
2019-01-25T00:32:52.974Z,101567.52
2019-01-25T00:35:20.414Z,101564.51
2019-01-25T00:37:48.173Z,101562.50
2019-01-25T00:40:17.292Z,101562.11
2019-01-25T00:42:44.337Z,101564.89
2019-01-25T00:45:11.982Z,101563.66
2019-01-25T00:47:40.510Z,101559.75
2019-01-25T00:50:12.034Z,101549.28
2019-01-25T00:52:39.387Z,101557.69
2019-01-25T00:55:07.923Z,101561.74
2019-01-25T00:57:35.306Z,101555.58
2019-01-25T01:00:08.170Z,101558.51
2019-01-25T01:02:35.266Z,101564.57
2019-01-25T01:05:03.210Z,101569.36
2019-01-25T01:07:30.301Z,101566.91
2019-01-25T01:09:57.347Z,101560.49
2019-01-25T01:12:24.430Z,101562.45
2019-01-25T01:14:52.943Z,101564.42
2019-01-25T01:17:20.339Z,101564.89
2019-01-25T01:19:47.394Z,101565.55
2019-01-25T01:22:14.439Z,101569.59
2019-01-25T01:24:41.520Z,101569.13
2019-01-25T01:27:08.606Z,101572.28
2019-01-25T01:29:36.042Z,101573.38
2019-01-25T01:32:03.307Z,101568.68
2019-01-25T01:34:31.049Z,101568.45
2019-01-25T01:36:58.405Z,101574.70
2019-01-25T01:39:25.858Z,101574.41
2019-01-25T01:41:52.911Z,101570.97
2019-01-25T01:44:20.262Z,101572.67
2019-01-25T01:46:47.618Z,101562.21
2019-01-25T01:49:14.969Z,101578.08
2019-01-25T01:51:42.426Z,101576.91
2019-01-25T01:54:09.889Z,101577.28
2019-01-25T01:56:37.546Z,101572.81
2019-01-25T01:59:04.604Z,101566.30
2019-01-25T02:01:31.665Z,101577.67
2019-01-25T02:03:58.711Z,101582.08
2019-01-25T02:06:25.784Z,101573.40
2019-01-25T02:08:53.748Z,101575.97
2019-01-25T02:11:20.809Z,101573.59
2019-01-25T02:13:47.865Z,101569.16
2019-01-25T02:16:14.925Z,101563.17
2019-01-25T02:18:41.970Z,101574.51
2019-01-25T02:21:09.658Z,101574.14
2019-01-25T02:23:36.802Z,101568.87
2019-01-25T02:26:04.079Z,101580.00
2019-01-25T02:28:31.181Z,101573.84
2019-01-25T02:30:58.246Z,101579.17
2019-01-25T02:33:25.920Z,101578.30
2019-01-25T02:35:53.273Z,101577.89
2019-01-25T02:38:20.306Z,101570.77
2019-01-25T02:40:47.934Z,101570.07
2019-01-25T02:43:15.538Z,101574.73
2019-01-25T02:45:42.594Z,101568.20
2019-01-25T02:48:09.627Z,101562.94
2019-01-25T02:50:37.060Z,101561.69
2019-01-25T02:53:04.292Z,101555.17
2019-01-25T02:55:32.109Z,101556.98
2019-01-25T02:57:59.778Z,101550.77
2019-01-25T03:00:26.858Z,101551.64
2019-01-25T03:02:54.594Z,101545.20
2019-01-25T03:05:23.061Z,101554.95
2019-01-25T03:07:50.158Z,101553.09
2019-01-25T03:10:18.283Z,101554.48
2019-01-25T03:12:45.481Z,101556.61
2019-01-25T03:15:15.119Z,101551.64
2019-01-25T03:17:42.171Z,101544.36
2019-01-25T03:20:10.076Z,101551.47
2019-01-25T03:22:37.110Z,101553.38
2019-01-25T03:25:05.455Z,101539.07
2019-01-25T03:27:34.119Z,101535.83
2019-01-25T03:30:01.188Z,101541.02
2019-01-25T03:32:28.277Z,101540.16
2019-01-25T03:34:55.378Z,101545.09
2019-01-25T03:37:22.449Z,101543.50
2019-01-25T03:39:49.518Z,101548.13
2019-01-25T03:42:16.632Z,101547.54
2019-01-25T03:44:43.673Z,101549.16
2019-01-25T03:47:10.721Z,101547.79
2019-01-25T03:49:37.785Z,101547.98
2019-01-25T03:52:04.859Z,101545.14
2019-01-25T03:54:31.917Z,101547.23
2019-01-25T03:56:58.984Z,101540.81
2019-01-25T03:59:26.035Z,101541.59
2019-01-25T04:01:53.109Z,101541.13
2019-01-25T04:04:20.183Z,101537.04
2019-01-25T04:06:47.253Z,101537.28
2019-01-25T04:09:14.319Z,101531.61
2019-01-25T04:11:42.041Z,101529.09
2019-01-25T04:14:09.909Z,101531.02
2019-01-25T04:16:38.902Z,101533.67
2019-01-25T04:19:06.014Z,101537.56
2019-01-25T04:21:33.092Z,101542.19
2019-01-25T04:24:00.536Z,101548.69
2019-01-25T04:26:27.618Z,101546.89
2019-01-25T04:28:56.445Z,101556.09
2019-01-25T04:31:23.529Z,101556.68
2019-01-25T04:33:50.589Z,101549.84
2019-01-25T04:36:17.690Z,101554.27
2019-01-25T04:38:44.745Z,101557.93
2019-01-25T04:41:12.079Z,101550.99
2019-01-25T04:43:39.191Z,101555.87
2019-01-25T04:46:06.283Z,101549.16
2019-01-25T04:48:33.343Z,101550.33
2019-01-25T04:51:06.059Z,101549.19
2019-01-25T04:53:35.256Z,101550.11
2019-01-25T04:56:02.338Z,101550.28
2019-01-25T04:58:30.677Z,101548.95
2019-01-25T05:01:06.121Z,101554.22
2019-01-25T05:03:33.173Z,101556.86
2019-01-25T05:06:00.262Z,101561.67
2019-01-25T05:08:27.674Z,101559.84
2019-01-25T05:10:54.749Z,101557.55
2019-01-25T05:13:23.511Z,101565.34
2019-01-25T05:15:51.211Z,101566.33
2019-01-25T05:18:18.528Z,101569.23
2019-01-25T05:20:46.293Z,101564.50
2019-01-25T05:23:13.645Z,101568.70
2019-01-25T05:25:41.166Z,101580.22
2019-01-25T05:28:13.791Z,101568.42
2019-01-25T05:30:53.845Z,101574.52
2019-01-25T05:33:20.902Z,101568.71
2019-01-25T05:35:48.543Z,101575.87
2019-01-25T05:38:16.202Z,101566.70
2019-01-25T05:40:43.451Z,101573.81
2019-01-25T05:43:12.653Z,101578.98
2019-01-25T05:45:43.226Z,101579.54
2019-01-25T05:48:10.771Z,101568.72
2019-01-25T05:50:38.674Z,101567.61
2019-01-25T05:53:06.066Z,101562.63
2019-01-25T05:55:33.187Z,101566.11
2019-01-25T05:58:01.571Z,101561.56
2019-01-25T06:00:32.342Z,101573.85
2019-01-25T06:03:08.446Z,101570.77
2019-01-25T06:05:35.945Z,101569.27
2019-01-25T06:08:11.250Z,101565.85
2019-01-25T06:10:38.334Z,101563.47
2019-01-25T06:13:05.457Z,101556.27
2019-01-25T06:15:32.508Z,101559.80
2019-01-25T06:18:03.298Z,101562.26
2019-01-25T06:20:30.341Z,101568.50
2019-01-25T06:22:57.402Z,101571.77
2019-01-25T06:25:24.481Z,101562.03
2019-01-25T06:27:51.528Z,101560.56
2019-01-25T06:30:18.716Z,101555.91
2019-01-25T06:32:46.944Z,101560.20
2019-01-25T06:35:15.400Z,101555.70
2019-01-25T06:37:42.840Z,101560.97
2019-01-25T06:40:09.916Z,101558.48
2019-01-25T06:42:36.960Z,101550.61
2019-01-25T06:45:05.630Z,101554.48
2019-01-25T06:47:32.684Z,101547.59
2019-01-25T06:49:59.788Z,101552.05
2019-01-25T06:52:26.841Z,101556.04
2019-01-25T06:54:54.235Z,101551.14
2019-01-25T06:57:33.108Z,101540.30
2019-01-25T07:00:01.179Z,101538.65
2019-01-25T07:02:32.940Z,101541.38
2019-01-25T07:05:00.019Z,101541.48
2019-01-25T07:07:30.925Z,101542.81
2019-01-25T07:09:58.287Z,101542.81
2019-01-25T07:12:26.358Z,101548.24
2019-01-25T07:14:53.426Z,101557.22
2019-01-25T07:17:21.985Z,101559.99
2019-01-25T07:19:50.042Z,101567.39
2019-01-25T07:22:17.416Z,101568.47
2019-01-25T07:24:44.969Z,101558.37
2019-01-25T07:27:12.635Z,101557.52
2019-01-25T07:29:40.081Z,101554.69
2019-01-25T07:32:07.224Z,101546.25
2019-01-25T07:34:34.311Z,101532.84
2019-01-25T07:37:01.389Z,101545.56
2019-01-25T07:39:30.116Z,101555.72
2019-01-25T07:41:59.428Z,101554.86
2019-01-25T07:44:26.585Z,101556.64
2019-01-25T07:46:54.092Z,101556.72
2019-01-25T07:49:21.191Z,101545.93
2019-01-25T07:51:49.020Z,101554.77
2019-01-25T07:54:16.720Z,101556.02
2019-01-25T07:56:44.118Z,101556.06
2019-01-25T07:59:12.235Z,101553.16
2019-01-25T08:01:40.003Z,101551.20
2019-01-25T08:04:07.581Z,101554.14
2019-01-25T08:06:34.963Z,101554.84
2019-01-25T08:09:02.243Z,101549.67
2019-01-25T08:11:30.666Z,101546.84
2019-01-25T08:13:59.023Z,101539.94
2019-01-25T08:16:26.082Z,101547.48
2019-01-25T08:18:53.171Z,101546.77
2019-01-25T08:21:20.270Z,101545.66
2019-01-25T08:23:47.319Z,101555.42
2019-01-25T08:26:15.594Z,101556.75
2019-01-25T08:28:43.202Z,101554.84
2019-01-25T08:31:10.275Z,101547.75
2019-01-25T08:33:38.802Z,101546.47
2019-01-25T08:36:07.247Z,101543.65
2019-01-25T08:38:34.309Z,101551.24
2019-01-25T08:41:01.662Z,101543.91
2019-01-25T08:43:28.855Z,101531.36
2019-01-25T08:45:55.901Z,101527.28
2019-01-25T08:48:24.042Z,101535.55
2019-01-25T08:50:51.391Z,101531.02
2019-01-25T08:53:19.667Z,101521.33
2019-01-25T08:55:47.092Z,101529.48
2019-01-25T08:58:15.188Z,101528.37
2019-01-25T09:00:42.623Z,101534.31
2019-01-25T09:03:10.416Z,101544.27
2019-01-25T09:05:38.177Z,101549.93
2019-01-25T09:08:05.259Z,101545.26
2019-01-25T09:10:33.831Z,101551.09
2019-01-25T09:13:02.287Z,101557.41
2019-01-25T09:15:29.745Z,101554.15
2019-01-25T09:17:57.100Z,101552.34
2019-01-25T09:20:24.454Z,101562.44
2019-01-25T09:22:51.936Z,101569.89
2019-01-25T09:25:19.018Z,101561.77
2019-01-25T09:27:46.718Z,101558.15
2019-01-25T09:30:16.125Z,101557.22
2019-01-25T09:32:44.809Z,101553.34
2019-01-25T09:35:12.773Z,101548.83
2019-01-25T09:37:40.229Z,101541.33
2019-01-25T09:40:09.936Z,101531.25
2019-01-25T09:42:39.554Z,101528.64
2019-01-25T09:45:08.447Z,101529.08
2019-01-25T09:47:37.522Z,101520.89
2019-01-25T09:50:06.222Z,101517.73
2019-01-25T09:52:33.658Z,101512.14
2019-01-25T09:55:00.757Z,101500.74
2019-01-25T09:57:29.647Z,101498.42
2019-01-25T09:59:56.773Z,101492.73
2019-01-25T10:02:23.930Z,101492.13
2019-01-25T10:04:51.006Z,101502.59
2019-01-25T10:07:20.308Z,101501.37
2019-01-25T10:09:47.395Z,101511.94
2019-01-25T10:12:14.535Z,101513.27
2019-01-25T10:14:42.704Z,101507.31
2019-01-25T10:17:10.798Z,101511.59
2019-01-25T10:19:37.859Z,101502.62
2019-01-25T10:22:04.925Z,101493.58
2019-01-25T10:24:31.973Z,101487.16
2019-01-25T10:27:00.235Z,101484.38
2019-01-25T10:29:27.728Z,101483.89
2019-01-25T10:31:55.138Z,101478.34
2019-01-25T10:34:22.175Z,101476.76
2019-01-25T10:36:49.505Z,101473.43
2019-01-25T10:39:16.583Z,101473.49
2019-01-25T10:41:43.662Z,101465.72
2019-01-25T10:44:10.728Z,101467.81
2019-01-25T10:46:39.162Z,101463.20
2019-01-25T10:49:06.215Z,101460.86
2019-01-25T10:51:33.970Z,101458.25
2019-01-25T10:54:01.039Z,101451.02
2019-01-25T10:56:28.312Z,101446.97
2019-01-25T10:58:55.473Z,101436.92
2019-01-25T11:01:22.548Z,101428.16
2019-01-25T11:03:50.230Z,101431.78
2019-01-25T11:06:18.337Z,101433.16
2019-01-25T11:08:45.383Z,101433.41
2019-01-25T11:11:12.809Z,101421.73
2019-01-25T11:13:40.775Z,101426.09
2019-01-25T11:16:11.945Z,101415.78
2019-01-25T11:18:38.046Z,101417.72
2019-01-25T11:21:05.521Z,101411.78
2019-01-25T11:23:33.671Z,101409.11
2019-01-25T11:26:01.538Z,101402.68
2019-01-25T11:28:29.511Z,101404.47
2019-01-25T11:30:56.939Z,101409.52
2019-01-25T11:33:24.525Z,101414.86
2019-01-25T11:35:51.877Z,101404.89
2019-01-25T11:38:19.441Z,101408.39
2019-01-25T11:40:46.848Z,101404.88
2019-01-25T11:43:14.251Z,101403.13
2019-01-25T11:45:42.325Z,101398.67
2019-01-25T11:48:12.141Z,101391.34
2019-01-25T11:50:40.004Z,101396.37
2019-01-25T11:53:07.618Z,101388.61
2019-01-25T11:55:35.777Z,101389.16
2019-01-25T11:58:02.992Z,101389.66
2019-01-25T12:00:31.419Z,101397.05
2019-01-25T12:02:59.780Z,101398.92
2019-01-25T12:05:26.847Z,101401.47
2019-01-25T12:07:54.335Z,101399.69
2019-01-25T12:10:24.662Z,101391.31
2019-01-25T12:12:52.173Z,101385.91
2019-01-25T12:15:21.430Z,101383.47
2019-01-25T12:17:50.219Z,101381.77
2019-01-25T12:20:20.340Z,101367.44
2019-01-25T12:22:48.635Z,101367.77
2019-01-25T12:25:16.119Z,101366.20
2019-01-25T12:27:43.179Z,101359.88
2019-01-25T12:30:18.078Z,101353.62
2019-01-25T12:32:45.710Z,101352.66
2019-01-25T12:35:13.507Z,101348.41
2019-01-25T12:37:42.054Z,101354.02
2019-01-25T12:40:11.052Z,101348.52
2019-01-25T12:42:38.186Z,101347.72
2019-01-25T12:45:08.038Z,101342.80
2019-01-25T12:47:35.573Z,101348.45
2019-01-25T12:50:03.736Z,101346.32
2019-01-25T12:52:32.172Z,101344.66
2019-01-25T12:54:59.229Z,101339.11
2019-01-25T12:57:27.290Z,101336.27
2019-01-25T12:59:54.358Z,101329.42
2019-01-25T13:02:21.746Z,101333.02
2019-01-25T13:04:48.888Z,101323.42
2019-01-25T13:07:16.583Z,101319.33
2019-01-25T13:09:43.755Z,101326.60
2019-01-25T13:12:11.163Z,101331.38
2019-01-25T13:14:38.369Z,101320.36
2019-01-25T13:17:05.614Z,101316.49
2019-01-25T13:19:33.126Z,101313.80
2019-01-25T13:22:00.886Z,101309.45
2019-01-25T13:24:28.195Z,101304.63
2019-01-25T13:26:55.594Z,101290.92
2019-01-25T13:29:26.465Z,101290.22
2019-01-25T13:31:51.712Z,101281.91
2019-01-25T13:34:20.162Z,101281.34
2019-01-25T13:36:47.239Z,101278.60
2019-01-25T13:39:14.727Z,101277.48
2019-01-25T13:41:41.892Z,101276.75
2019-01-25T13:44:08.976Z,101275.83
2019-01-25T13:46:37.930Z,101278.10
2019-01-25T13:49:06.232Z,101277.55
2019-01-25T13:51:35.430Z,101278.82
2019-01-25T13:54:03.146Z,101266.62
2019-01-25T13:56:31.320Z,101267.53
2019-01-25T13:58:58.427Z,101275.11
2019-01-25T14:01:34.374Z,101275.25
2019-01-25T14:03:55.788Z,101271.30
2019-01-25T14:06:25.032Z,101273.43
2019-01-25T14:08:52.119Z,101272.34
2019-01-25T14:11:20.383Z,101273.59
2019-01-25T14:13:47.496Z,101269.64
2019-01-25T14:16:14.556Z,101271.00
2019-01-25T14:18:44.924Z,101268.30
2019-01-25T14:21:14.204Z,101273.73
2019-01-25T14:23:43.106Z,101277.14
2019-01-25T14:26:11.587Z,101276.36
2019-01-25T14:28:40.214Z,101270.59
2019-01-25T14:31:07.594Z,101268.34
2019-01-25T14:33:34.717Z,101266.19
2019-01-25T14:36:02.510Z,101259.70
2019-01-25T14:38:29.911Z,101258.94
2019-01-25T14:40:56.963Z,101255.69
2019-01-25T14:43:25.807Z,101253.60
2019-01-25T14:45:53.023Z,101245.53
2019-01-25T14:48:21.212Z,101247.34
2019-01-25T14:50:48.274Z,101255.96
2019-01-25T14:53:16.562Z,101246.29
2019-01-25T14:55:44.735Z,101239.83
2019-01-25T14:58:11.833Z,101235.06
2019-01-25T15:00:39.430Z,101242.56
2019-01-25T15:03:07.298Z,101246.13
2019-01-25T15:05:34.656Z,101242.59
2019-01-25T15:08:02.112Z,101240.09
2019-01-25T15:10:29.365Z,101234.52
2019-01-25T15:12:58.113Z,101235.42
2019-01-25T15:15:25.533Z,101229.27
2019-01-25T15:17:56.543Z,101227.16
2019-01-25T15:20:26.149Z,101218.52
2019-01-25T15:22:53.251Z,101217.19
2019-01-25T15:25:20.860Z,101217.12
2019-01-25T15:27:47.922Z,101210.41
2019-01-25T15:30:17.855Z,101216.96
2019-01-25T15:32:46.086Z,101218.92
2019-01-25T15:35:15.801Z,101212.42
2019-01-25T15:37:43.004Z,101218.47
2019-01-25T15:40:10.918Z,101218.97
2019-01-25T15:42:38.193Z,101212.56
2019-01-25T15:45:07.221Z,101210.80
2019-01-25T15:47:35.387Z,101215.03
2019-01-25T15:50:03.915Z,101226.27
2019-01-25T15:52:31.432Z,101235.71
2019-01-25T15:55:00.292Z,101229.41
2019-01-25T15:57:27.463Z,101231.17
2019-01-25T15:59:54.716Z,101219.59
2019-01-25T16:02:21.787Z,101212.73
2019-01-25T16:04:51.058Z,101211.41
2019-01-25T16:07:18.582Z,101212.83
2019-01-25T16:09:45.970Z,101203.36
2019-01-25T16:12:13.057Z,101203.64
2019-01-25T16:14:40.248Z,101201.62
2019-01-25T16:17:07.593Z,101195.03
2019-01-25T16:19:34.658Z,101191.62
2019-01-25T16:22:02.811Z,101181.67
2019-01-25T16:24:30.474Z,101179.22
2019-01-25T16:26:57.932Z,101178.20
2019-01-25T16:29:25.736Z,101184.37
2019-01-25T16:31:53.055Z,101187.14
2019-01-25T16:34:22.250Z,101194.81
2019-01-25T16:36:50.908Z,101175.45
2019-01-25T16:39:17.977Z,101172.56
2019-01-25T16:41:45.435Z,101171.83
2019-01-25T16:44:12.800Z,101165.95
2019-01-25T16:46:40.351Z,101151.61
2019-01-25T16:49:09.651Z,101138.34
2019-01-25T16:51:36.720Z,101142.03
2019-01-25T16:54:04.715Z,101141.98
2019-01-25T16:56:32.122Z,101150.59
2019-01-25T16:59:01.155Z,101155.73
2019-01-25T17:01:28.268Z,101149.08
2019-01-25T17:03:57.056Z,101143.42
2019-01-25T17:06:24.407Z,101136.86
2019-01-25T17:08:51.603Z,101137.89
2019-01-25T17:11:18.689Z,101123.92
2019-01-25T17:13:45.788Z,101113.92
2019-01-25T17:16:13.050Z,101109.17
2019-01-25T17:18:40.139Z,101099.09
2019-01-25T17:21:07.216Z,101100.84
2019-01-25T17:23:34.407Z,101100.61
2019-01-25T17:26:01.488Z,101103.73
2019-01-25T17:28:30.163Z,101102.63
2019-01-25T17:30:57.269Z,101088.37
2019-01-25T17:33:25.531Z,101087.03
2019-01-25T17:35:52.706Z,101079.88
2019-01-25T17:38:19.777Z,101083.23
2019-01-25T17:40:47.210Z,101081.11
2019-01-25T17:43:14.670Z,101072.56
2019-01-25T17:45:42.846Z,101064.17
2019-01-25T17:48:10.171Z,101048.45
2019-01-25T17:50:38.682Z,101042.76
2019-01-25T17:53:07.061Z,101036.36
2019-01-25T17:55:36.431Z,101030.31
2019-01-25T17:58:08.237Z,101022.17
2019-01-25T18:00:45.546Z,101016.25
2019-01-25T18:03:13.109Z,101009.55
2019-01-25T18:05:40.773Z,100997.40
2019-01-25T18:08:10.481Z,100999.50
2019-01-25T18:10:37.685Z,100989.48
2019-01-25T18:13:05.091Z,100980.77
2019-01-25T18:15:32.546Z,100963.81
2019-01-25T18:18:01.542Z,100954.86
2019-01-25T18:20:29.554Z,100934.48
2019-01-25T18:22:56.985Z,100932.81
2019-01-25T18:25:34.402Z,100925.69
2019-01-25T18:28:02.222Z,100910.94
2019-01-25T18:30:36.973Z,100902.27
2019-01-25T18:33:04.048Z,100909.08
2019-01-25T18:35:31.666Z,100912.33
2019-01-25T18:37:59.527Z,100900.31
2019-01-25T18:40:26.938Z,100893.28
2019-01-25T18:42:54.007Z,100886.33
2019-01-25T18:45:22.000Z,100879.05
2019-01-25T18:47:50.281Z,100872.57
2019-01-25T18:50:17.546Z,100878.64
2019-01-25T18:52:44.690Z,100869.03
2019-01-25T18:55:14.376Z,100858.55
2019-01-25T18:57:41.458Z,100854.03
2019-01-25T19:00:12.222Z,100847.31
2019-01-25T19:02:40.442Z,100841.46
2019-01-25T19:05:08.548Z,100848.38
2019-01-25T19:07:36.274Z,100846.36
2019-01-25T19:10:05.667Z,100840.75
2019-01-25T19:12:33.127Z,100844.19
2019-01-25T19:15:04.590Z,100843.81
2019-01-25T19:17:30.219Z,100834.63
2019-01-25T19:19:57.290Z,100831.61
2019-01-25T19:22:24.868Z,100834.38
2019-01-25T19:24:52.071Z,100834.62
2019-01-25T19:27:19.145Z,100827.78
2019-01-25T19:29:47.765Z,100823.67
2019-01-25T19:32:14.928Z,100824.48
2019-01-25T19:34:42.016Z,100829.17
2019-01-25T19:37:09.134Z,100824.27
2019-01-25T19:39:37.207Z,100820.95
2019-01-25T19:42:04.475Z,100804.39
2019-01-25T19:44:31.774Z,100795.25
2019-01-25T19:46:59.375Z,100796.09
2019-01-25T19:49:26.835Z,100795.75
2019-01-25T19:51:54.335Z,100790.30
2019-01-25T19:54:22.368Z,100780.29
2019-01-25T19:56:50.123Z,100775.66
2019-01-25T19:59:17.244Z,100768.59
2019-01-25T20:01:44.627Z,100754.56
2019-01-25T20:04:11.718Z,100751.92
2019-01-25T20:06:40.244Z,100748.14
2019-01-25T20:09:09.251Z,100749.63
2019-01-25T20:11:36.551Z,100745.93
2019-01-25T20:14:05.687Z,100732.26
2019-01-25T20:16:32.755Z,100725.73
2019-01-25T20:19:01.653Z,100725.28
2019-01-25T20:21:28.858Z,100719.70
2019-01-25T20:23:55.954Z,100715.91
2019-01-25T20:26:23.027Z,100711.70
2019-01-25T20:28:50.225Z,100713.83
2019-01-25T20:31:17.299Z,100699.98
2019-01-25T20:33:45.985Z,100691.97
2019-01-25T20:36:13.065Z,100691.38
2019-01-25T20:38:40.276Z,100684.08
2019-01-25T20:41:08.327Z,100685.64
2019-01-25T20:43:35.795Z,100685.30
2019-01-25T20:46:04.915Z,100671.19
2019-01-25T20:48:31.994Z,100667.80
2019-01-25T20:50:59.093Z,100658.20
2019-01-25T20:53:27.272Z,100657.18
2019-01-25T20:55:54.635Z,100648.10
2019-01-25T20:58:22.059Z,100652.19
2019-01-25T21:00:51.771Z,100656.53
2019-01-25T21:03:19.387Z,100651.02
2019-01-25T21:05:46.482Z,100659.99
2019-01-25T21:08:13.550Z,100645.12
2019-01-25T21:10:40.649Z,100646.20
2019-01-25T21:13:09.537Z,100634.41
2019-01-25T21:15:36.930Z,100623.76
2019-01-25T21:18:04.995Z,100624.13
2019-01-25T21:20:37.835Z,100614.31
2019-01-25T21:23:05.583Z,100613.92
2019-01-25T21:25:33.145Z,100601.69
2019-01-25T21:28:00.250Z,100593.02
2019-01-25T21:30:29.960Z,100591.66
2019-01-25T21:32:57.032Z,100593.54
2019-01-25T21:35:25.931Z,100587.67
2019-01-25T21:37:53.029Z,100583.06
2019-01-25T21:40:21.935Z,100585.30
2019-01-25T21:42:49.047Z,100577.22
2019-01-25T21:45:18.698Z,100567.09
2019-01-25T21:47:45.789Z,100566.02
2019-01-25T21:50:15.164Z,100566.06
2019-01-25T21:52:42.246Z,100565.80
2019-01-25T21:55:10.771Z,100563.45
2019-01-25T21:57:37.878Z,100562.73
2019-01-25T22:00:08.478Z,100560.55
2019-01-25T22:02:36.331Z,100551.27
2019-01-25T22:05:04.510Z,100534.84
2019-01-25T22:07:31.658Z,100535.27
2019-01-25T22:09:58.719Z,100520.40
2019-01-25T22:12:26.174Z,100505.21
2019-01-25T22:14:53.297Z,100484.11
2019-01-25T22:17:21.078Z,100477.59
2019-01-25T22:19:48.502Z,100478.48
2019-01-25T22:22:15.988Z,100491.81
2019-01-25T22:24:43.346Z,100474.45
2019-01-25T22:27:10.695Z,100477.59
2019-01-25T22:29:38.155Z,100487.16
2019-01-25T22:32:05.506Z,100491.55
2019-01-25T22:34:33.273Z,100491.61
2019-01-25T22:37:01.357Z,100475.67
2019-01-25T22:39:29.538Z,100475.67
2019-01-25T22:41:56.975Z,100483.72
2019-01-25T22:44:24.338Z,100462.73
2019-01-25T22:46:51.417Z,100456.92
2019-01-25T22:49:18.773Z,100457.05
2019-01-25T22:51:46.391Z,100455.96
2019-01-25T22:54:13.795Z,100444.86
2019-01-25T22:56:41.966Z,100441.14
2019-01-25T22:59:09.684Z,100436.02
2019-01-25T23:01:38.882Z,100411.36
2019-01-25T23:05:09.114Z,100408.76
2019-01-25T23:07:37.075Z,100406.61
2019-01-25T23:10:22.678Z,100409.36
2019-01-25T23:12:50.225Z,100413.26
2019-01-25T23:15:18.156Z,100408.42
2019-01-25T23:17:45.218Z,100413.34
2019-01-25T23:22:41.071Z,100417.50
2019-01-25T23:25:09.648Z,100410.63
2019-01-25T23:27:36.705Z,100407.91
2019-01-25T23:30:08.330Z,100401.92
2019-01-25T23:32:35.911Z,100386.89
2019-01-25T23:35:03.681Z,100383.83
2019-01-25T23:37:30.733Z,100388.00
2019-01-25T23:39:58.484Z,100377.28
2019-01-25T23:42:25.893Z,100373.15
2019-01-25T23:44:53.610Z,100376.77
2019-01-25T23:47:22.594Z,100385.23
2019-01-25T23:49:50.078Z,100381.45
2019-01-25T23:52:17.709Z,100373.98
2019-01-25T23:54:45.141Z,100373.40
2019-01-25T23:57:12.838Z,100367.88
2019-01-25T23:59:40.286Z,100363.91
